Time;durP1;ratioP1;P1;durP2;ratioP2;P2;SDS_P1;SDS_P2;PMS_P1;PMS_P2;Temp;Humidity;BMP_temperature;BMP_pressure;BME280_temperature;BME280_humidity;BME280_pressure;Samples;Min_cycle;Max_cycle;Signal;HPM_P1;HPM_P2
2023/10/12 00:00:42;;;;;;;19.90;16.73;;;16.00;99.90;;;;;;5030014;28;20042;-65
2023/10/12 00:03:16;;;;;;;18.77;16.88;;;16.10;99.90;;;;;;5030574;28;20551;-65
2023/10/12 00:05:45;;;;;;;19.98;17.15;;;16.20;99.90;;;;;;5030292;28;20045;-65
2023/10/12 00:08:25;;;;;;;20.38;17.38;;;16.30;99.90;;;;;;5030368;28;20033;-65
2023/10/12 00:10:54;;;;;;;19.92;16.80;;;16.30;99.90;;;;;;5030513;28;20393;-65
2023/10/12 00:13:20;;;;;;;19.90;17.05;;;16.30;99.90;;;;;;5058908;28;20028;-65
2023/10/12 00:15:47;;;;;;;22.27;16.95;;;16.20;99.90;;;;;;5112588;28;20057;-66
2023/10/12 00:18:17;;;;;;;20.83;17.67;;;16.40;99.90;;;;;;5113461;28;20027;-65
2023/10/12 00:20:51;;;;;;;19.73;17.40;;;16.70;99.90;;;;;;5112963;28;20032;-66
2023/10/12 00:23:17;;;;;;;20.75;17.58;;;16.70;99.90;;;;;;5112723;28;20038;-65
2023/10/12 00:25:47;;;;;;;19.55;17.38;;;16.60;99.90;;;;;;5112440;28;20039;-65
2023/10/12 00:28:20;;;;;;;21.35;17.27;;;16.40;99.90;;;;;;5106095;28;20051;-65
2023/10/12 00:30:47;;;;;;;21.52;17.67;;;16.10;99.90;;;;;;5092337;28;20414;-65
2023/10/12 00:33:13;;;;;;;22.52;18.00;;;16.00;99.90;;;;;;5092222;28;20056;-65
2023/10/12 00:35:39;;;;;;;19.83;17.67;;;15.80;99.90;;;;;;5092602;28;20062;-65
2023/10/12 00:38:18;;;;;;;21.73;17.60;;;15.70;99.90;;;;;;5092312;28;20019;-65
2023/10/12 00:41:06;;;;;;;19.38;17.40;;;15.60;99.90;;;;;;5092102;28;20028;-65
2023/10/12 00:43:38;;;;;;;21.45;17.83;;;15.50;99.90;;;;;;5091607;28;20028;-65
2023/10/12 00:46:21;;;;;;;19.73;17.63;;;15.30;99.90;;;;;;5092029;28;20086;-65
2023/10/12 00:49:13;;;;;;;21.63;17.45;;;15.20;99.90;;;;;;5092416;28;20028;-65
2023/10/12 00:51:34;;;;;;;20.35;17.52;;;15.30;99.90;;;;;;5091856;28;20103;-66
2023/10/12 00:53:59;;;;;;;22.08;16.73;;;15.30;99.90;;;;;;5091995;28;20024;-66
2023/10/12 00:56:26;;;;;;;20.98;17.55;;;15.20;99.90;;;;;;5091627;28;20528;-65
2023/10/12 00:58:55;;;;;;;19.10;16.88;;;15.20;99.90;;;;;;5091953;28;20020;-65
2023/10/12 01:01:21;;;;;;;21.20;18.20;;;15.20;99.90;;;;;;5091890;28;20081;-65
2023/10/12 01:03:47;;;;;;;21.05;18.40;;;15.10;99.90;;;;;;5091781;28;20108;-65
2023/10/12 01:06:25;;;;;;;20.80;18.05;;;15.10;99.90;;;;;;5091538;28;20031;-65
2023/10/12 01:08:51;;;;;;;20.23;18.08;;;15.00;99.90;;;;;;5091909;28;20024;-66
2023/10/12 01:11:20;;;;;;;20.20;18.08;;;15.00;99.90;;;;;;5091314;28;20069;-66
2023/10/12 01:13:55;;;;;;;19.90;17.80;;;15.00;99.90;;;;;;5091182;28;20501;-65
2023/10/12 01:16:29;;;;;;;20.00;16.95;;;15.00;99.90;;;;;;5091671;28;20022;-66
2023/10/12 01:19:05;;;;;;;;;;;14.80;99.90;;;;;;5092257;28;20036;-65
2023/10/12 01:21:35;;;;;;;24.77;18.27;;;14.80;99.90;;;;;;5091339;28;20465;-66
2023/10/12 01:24:05;;;;;;;22.50;18.02;;;14.80;99.90;;;;;;5091119;28;20028;-66
2023/10/12 01:26:33;;;;;;;21.23;18.98;;;14.70;99.90;;;;;;5091327;28;20071;-65
2023/10/12 01:29:00;;;;;;;19.75;17.60;;;14.70;99.90;;;;;;5091081;28;20434;-66
2023/10/12 01:31:30;;;;;;;20.60;18.27;;;14.70;99.90;;;;;;5091593;28;20035;-66
2023/10/12 01:33:57;;;;;;;23.02;17.98;;;14.90;99.90;;;;;;5091391;28;20032;-66
2023/10/12 01:36:30;;;;;;;20.17;17.35;;;15.00;99.90;;;;;;5091243;28;20085;-65
2023/10/12 01:39:10;;;;;;;20.27;16.10;;;15.20;99.90;;;;;;5091138;28;20048;-65
2023/10/12 01:41:40;;;;;;;19.35;16.75;;;15.30;99.90;;;;;;5090963;28;20028;-65
2023/10/12 01:44:10;;;;;;;21.67;17.10;;;15.40;99.90;;;;;;5091434;28;20028;-66
2023/10/12 01:46:40;;;;;;;21.17;18.10;;;15.30;99.90;;;;;;5073441;28;20036;-65
2023/10/12 01:49:11;;;;;;;23.35;18.65;;;15.40;99.90;;;;;;5091038;28;20119;-65
2023/10/12 01:51:45;;;;;;;21.38;17.67;;;15.60;99.90;;;;;;5090958;28;20558;-66
2023/10/12 01:54:22;;;;;;;20.50;17.52;;;15.70;99.90;;;;;;5091012;28;20397;-65
2023/10/12 01:56:53;;;;;;;20.90;17.85;;;15.70;99.90;;;;;;5095017;28;20032;-65
2023/10/12 01:59:25;;;;;;;20.40;17.83;;;15.80;99.90;;;;;;5095406;28;20510;-66
2023/10/12 02:02:07;;;;;;;21.60;17.33;;;15.70;99.90;;;;;;5095173;28;20490;-66
2023/10/12 02:04:39;;;;;;;22.77;17.05;;;15.60;99.90;;;;;;5095498;28;20533;-65
2023/10/12 02:07:05;;;;;;;23.42;18.02;;;15.40;99.90;;;;;;5095227;28;20032;-65
2023/10/12 02:09:34;;;;;;;20.15;17.25;;;15.20;99.90;;;;;;5094892;28;20440;-65
2023/10/12 02:12:09;;;;;;;21.20;18.58;;;15.00;99.90;;;;;;5095571;28;20055;-66
2023/10/12 02:14:39;;;;;;;24.83;18.95;;;14.90;99.90;;;;;;5095611;28;20032;-65
2023/10/12 02:17:08;;;;;;;22.30;18.83;;;14.80;99.90;;;;;;5094691;28;20039;-65
2023/10/12 02:19:44;;;;;;;21.17;17.95;;;14.70;99.90;;;;;;5094835;28;20070;-65
2023/10/12 02:22:29;;;;;;;20.33;18.20;;;14.70;99.90;;;;;;5095052;28;20506;-65
2023/10/12 02:27:41;;;;;;;20.60;18.50;;;14.60;99.90;;;;;;5095721;28;20118;-66
2023/10/12 02:30:13;;;;;;;20.17;18.17;;;14.60;99.90;;;;;;5115468;28;20036;-66
2023/10/12 02:32:51;;;;;;;20.67;18.40;;;14.60;99.90;;;;;;5115168;28;20032;-66
2023/10/12 02:35:19;;;;;;;20.63;18.50;;;14.50;99.90;;;;;;5115182;28;20398;-66
2023/10/12 02:37:46;;;;;;;23.33;18.75;;;14.50;99.90;;;;;;5114853;28;20027;-65
2023/10/12 02:40:12;;;;;;;23.05;18.33;;;14.30;99.90;;;;;;5114625;28;20031;-66
2023/10/12 02:42:41;;;;;;;22.05;17.95;;;14.20;99.90;;;;;;5114874;28;20027;-65
2023/10/12 02:45:17;;;;;;;21.08;18.20;;;14.30;99.90;;;;;;5114788;28;20125;-66
2023/10/12 02:47:45;;;;;;;20.15;18.17;;;14.20;99.90;;;;;;5114696;28;20074;-65
2023/10/12 02:52:44;;;;;;;20.73;18.58;;;14.30;99.90;;;;;;5114644;28;20084;-66
2023/10/12 02:57:53;;;;;;;20.52;18.35;;;14.20;99.90;;;;;;5114590;28;20024;-66
2023/10/12 03:00:35;;;;;;;20.35;18.20;;;14.10;99.90;;;;;;5114500;28;20050;-65
2023/10/12 03:05:47;;;;;;;21.23;18.40;;;14.10;99.90;;;;;;5114232;28;20069;-66
2023/10/12 03:08:14;;;;;;;19.13;17.17;;;14.10;99.90;;;;;;5113329;28;20024;-65
2023/10/12 03:10:48;;;;;;;20.35;18.13;;;14.40;99.90;;;;;;5095973;28;20383;-65
2023/10/12 03:13:25;;;;;;;19.40;17.23;;;14.60;99.90;;;;;;5114243;28;20020;-65
2023/10/12 03:15:57;;;;;;;21.20;17.23;;;14.80;99.90;;;;;;5114174;28;20526;-66
2023/10/12 03:18:26;;;;;;;19.63;17.48;;;14.80;99.90;;;;;;5114013;28;20027;-65
2023/10/12 03:21:13;;;;;;;21.27;17.10;;;14.90;99.90;;;;;;5114257;28;20497;-66
2023/10/12 03:23:40;;;;;;;20.77;17.85;;;14.90;99.90;;;;;;5113503;28;20025;-66
2023/10/12 03:26:26;;;;;;;20.90;18.05;;;14.90;99.90;;;;;;5113869;28;20035;-66
2023/10/12 03:37:13;;;;;;;24.00;17.73;;;14.90;99.90;;;;;;5030545;28;20408;-66
2023/10/12 03:43:08;;;;;;;19.40;17.00;;;14.70;99.90;;;;;;5030799;28;20117;-66
2023/10/12 03:45:23;;;;;;;21.63;17.30;;;14.60;99.90;;;;;;5023732;28;20427;-66
2023/10/12 03:48:15;;;;;;;19.33;17.27;;;14.40;99.90;;;;;;5031102;28;20522;-66
2023/10/12 03:50:59;;;;;;;23.40;17.70;;;14.30;99.90;;;;;;5030996;28;20036;-66
2023/10/12 03:53:31;;;;;;;21.85;17.95;;;14.10;99.90;;;;;;5030673;28;20168;-66
2023/10/12 03:56:01;;;;;;;20.65;18.45;;;14.10;99.90;;;;;;5030668;28;20065;-66
2023/10/12 03:58:28;;;;;;;25.88;18.77;;;14.00;99.90;;;;;;5030607;28;20033;-67
2023/10/12 04:01:12;;;;;;;20.38;18.17;;;13.90;99.90;;;;;;5030845;28;20033;-67
2023/10/12 04:03:40;;;;;;;22.67;18.60;;;13.80;99.90;;;;;;5030433;28;20036;-66
2023/10/12 04:06:15;;;;;;;23.55;18.80;;;13.70;99.90;;;;;;5030034;28;20045;-66
2023/10/12 04:11:50;;;;;;;20.48;18.48;;;13.70;99.90;;;;;;5025839;28;20045;-66
2023/10/12 04:16:57;;;;;;;22.38;18.60;;;13.60;99.90;;;;;;5092680;28;20028;-66
2023/10/12 04:19:30;;;;;;;21.13;19.00;;;13.60;99.90;;;;;;5092038;28;20059;-66
2023/10/12 04:22:05;;;;;;;20.05;18.00;;;13.60;99.90;;;;;;5092134;28;20070;-66
2023/10/12 04:24:42;;;;;;;20.52;18.33;;;13.60;99.90;;;;;;5092349;28;20032;-66
2023/10/12 04:27:23;;;;;;;24.38;18.65;;;13.60;99.90;;;;;;5092461;28;20036;-66
2023/10/12 04:29:56;;;;;;;21.63;18.73;;;13.60;99.90;;;;;;5092512;28;20084;-66
2023/10/12 04:32:40;;;;;;;23.58;18.25;;;13.60;99.90;;;;;;5075356;28;20077;-66
2023/10/12 04:35:17;;;;;;;21.02;18.75;;;13.60;99.90;;;;;;5073795;28;20032;-65
2023/10/12 04:37:43;;;;;;;24.88;19.42;;;13.60;99.90;;;;;;5092257;28;20063;-66
2023/10/12 04:42:53;;;;;;;21.67;18.98;;;13.60;99.90;;;;;;5092035;28;20027;-65
2023/10/12 04:47:46;;;;;;;21.42;18.98;;;13.60;99.90;;;;;;5091546;28;20016;-65
2023/10/12 04:50:26;;;;;;;21.02;18.63;;;13.90;99.90;;;;;;5091906;28;20295;-65
2023/10/12 04:53:14;;;;;;;23.95;19.08;;;14.00;99.90;;;;;;5091960;28;20031;-66
2023/10/12 04:55:47;;;;;;;22.55;18.27;;;14.20;99.90;;;;;;5091376;28;20066;-65
2023/10/12 04:58:31;;;;;;;20.60;18.40;;;14.20;99.90;;;;;;5092302;28;20387;-66
2023/10/12 05:01:12;;;;;;;;;;;14.20;99.90;;;;;;5092469;28;20039;-65
2023/10/12 05:03:41;;;;;;;24.30;18.35;;;14.30;99.90;;;;;;5091493;28;19987;-66
2023/10/12 05:06:13;;;;;;;19.13;17.13;;;14.30;99.90;;;;;;5091817;28;20048;-65
2023/10/12 05:08:40;;;;;;;20.25;17.63;;;14.40;99.90;;;;;;5091613;28;20443;-66
2023/10/12 05:11:08;;;;;;;23.77;17.58;;;14.40;99.90;;;;;;5091932;28;20036;-66
2023/10/12 05:13:34;;;;;;;20.33;18.13;;;14.30;99.90;;;;;;5073393;28;20139;-65
2023/10/12 05:16:07;;;;;;;23.35;17.70;;;14.30;99.90;;;;;;5091578;28;20118;-66
2023/10/12 05:18:33;;;;;;;20.77;17.65;;;14.20;99.90;;;;;;5091160;28;20135;-68
2023/10/12 05:21:00;;;;;;;22.85;18.63;;;14.00;99.90;;;;;;5091519;28;20036;-66
2023/10/12 05:23:26;;;;;;;21.60;18.25;;;13.90;99.90;;;;;;5091470;28;20576;-66
2023/10/12 05:28:19;;;;;;;21.90;17.98;;;13.70;99.90;;;;;;5077583;28;20521;-66
2023/10/12 05:31:09;;;;;;;22.77;18.05;;;13.60;99.90;;;;;;5090790;28;20039;-66
2023/10/12 05:33:43;;;;;;;27.35;18.92;;;13.50;99.90;;;;;;5090890;28;20543;-65
2023/10/12 05:36:14;;;;;;;21.13;18.73;;;13.50;99.90;;;;;;5091199;28;20557;-66
2023/10/12 05:38:48;;;;;;;25.58;19.00;;;13.40;99.90;;;;;;5091260;28;20402;-66
2023/10/12 05:41:21;;;;;;;20.63;18.45;;;13.40;99.90;;;;;;5091120;28;20379;-66
2023/10/12 05:43:47;;;;;;;27.58;18.63;;;13.50;99.90;;;;;;5091197;28;20043;-66
2023/10/12 05:46:15;;;;;;;23.77;18.90;;;13.50;99.90;;;;;;5090765;28;20040;-66
2023/10/12 05:48:46;;;;;;;22.55;19.02;;;13.50;99.90;;;;;;5090852;28;20039;-66
2023/10/12 05:51:19;;;;;;;20.05;17.95;;;13.50;99.90;;;;;;5091713;28;20095;-66
2023/10/12 05:53:45;;;;;;;21.40;19.10;;;13.50;99.90;;;;;;5091249;28;20035;-66
2023/10/12 05:56:12;;;;;;;24.15;19.13;;;13.40;99.90;;;;;;5091530;28;20027;-66
2023/10/12 05:58:41;;;;;;;22.92;18.17;;;13.40;99.90;;;;;;5091216;28;20048;-66
2023/10/12 06:01:09;;;;;;;21.05;18.88;;;13.40;99.90;;;;;;5090903;28;20032;-68
2023/10/12 06:03:46;;;;;;;22.67;18.65;;;13.40;99.90;;;;;;5090807;28;20031;-66
2023/10/12 06:06:12;;;;;;;23.02;18.98;;;13.40;99.90;;;;;;5091266;28;20047;-66
2023/10/12 06:08:40;;;;;;;20.58;18.38;;;13.30;99.90;;;;;;5091164;28;20028;-66
2023/10/12 06:11:10;;;;;;;22.27;18.95;;;13.30;99.90;;;;;;5090700;28;20038;-66
2023/10/12 06:13:43;;;;;;;22.10;18.38;;;13.30;99.90;;;;;;5090670;28;20107;-65
2023/10/12 06:16:15;;;;;;;23.17;19.40;;;13.40;99.90;;;;;;5090376;28;20403;-65
2023/10/12 06:18:44;;;;;;;21.63;18.55;;;13.30;99.90;;;;;;5091364;28;20036;-65
2023/10/12 06:21:19;;;;;;;22.50;18.58;;;13.30;99.90;;;;;;5090749;28;20024;-64
2023/10/12 06:23:51;;;;;;;20.92;18.77;;;13.30;99.90;;;;;;5090705;28;20030;-65
2023/10/12 06:26:29;;;;;;;23.75;18.50;;;13.30;99.90;;;;;;5090281;28;20048;-65
2023/10/12 06:28:58;;;;;;;21.92;17.30;;;13.50;99.90;;;;;;5090075;28;20040;-65
2023/10/12 06:31:31;;;;;;;24.05;17.88;;;13.80;99.90;;;;;;5090133;28;20082;-65
2023/10/12 06:34:03;;;;;;;21.15;17.42;;;14.00;99.90;;;;;;5091049;28;20032;-64
2023/10/12 06:36:38;;;;;;;20.85;17.58;;;14.10;99.90;;;;;;5072629;28;20059;-64
2023/10/12 06:44:27;;;;;;;23.90;17.67;;;14.70;99.90;;;;;;5094327;28;20020;-65
2023/10/12 06:46:54;;;;;;;22.02;17.45;;;14.70;99.90;;;;;;5093832;28;20036;-64
2023/10/12 06:49:22;;;;;;;23.20;16.98;;;14.80;99.90;;;;;;5094411;28;20032;-64
2023/10/12 06:52:00;;;;;;;25.95;16.83;;;14.90;99.90;;;;;;5094355;28;20032;-65
2023/10/12 06:59:59;;;;;;;21.35;17.30;;;15.00;99.90;;;;;;5093861;28;20101;-67
2023/10/12 07:02:29;;;;;;;26.17;18.15;;;14.80;99.90;;;;;;5094037;28;20035;-66
2023/10/12 07:04:55;;;;;;;23.88;19.00;;;14.60;99.90;;;;;;5093932;28;20158;-65
2023/10/12 07:07:41;;;;;;;22.02;17.48;;;14.50;99.90;;;;;;5094086;28;20103;-64
2023/10/12 07:12:45;;;;;;;23.35;19.23;;;14.40;99.90;;;;;;5093614;28;20851;-65
2023/10/12 07:15:19;;;;;;;23.02;18.60;;;14.30;99.90;;;;;;5093657;28;20043;-65
2023/10/12 07:17:49;;;;;;;23.15;18.30;;;14.40;99.90;;;;;;5093778;28;20031;-65
2023/10/12 07:22:57;;;;;;;20.70;18.13;;;14.40;99.90;;;;;;5094074;28;20031;-65
2023/10/12 07:25:25;;;;;;;30.50;24.70;;;14.40;99.90;;;;;;5109821;28;20028;-66
2023/10/12 07:28:00;;;;;;;29.60;24.92;;;14.50;99.90;;;;;;5113947;28;20036;-65
2023/10/12 07:30:42;;;;;;;28.52;21.02;;;14.60;99.90;;;;;;5113677;28;20028;-66
2023/10/12 07:33:08;;;;;;;26.67;20.20;;;14.60;99.90;;;;;;5113831;28;20039;-66
2023/10/12 07:35:35;;;;;;;26.65;20.20;;;14.70;99.90;;;;;;5113868;28;20077;-65
2023/10/12 07:38:12;;;;;;;22.52;19.95;;;14.70;99.90;;;;;;5113984;28;20446;-65
2023/10/12 07:40:56;;;;;;;23.30;19.75;;;14.60;99.90;;;;;;5114058;28;20090;-65
2023/10/12 07:43:25;;;;;;;25.08;19.45;;;14.60;99.90;;;;;;5113356;28;20031;-65
2023/10/12 07:45:54;;;;;;;23.08;19.75;;;14.70;99.90;;;;;;5114051;28;20076;-65
2023/10/12 07:48:31;;;;;;;22.13;19.77;;;14.70;99.90;;;;;;5113582;28;20024;-65
2023/10/12 07:51:15;;;;;;;21.33;19.02;;;14.90;99.90;;;;;;5113120;28;20024;-65
2023/10/12 07:53:45;;;;;;;29.10;19.15;;;15.10;99.90;;;;;;5113074;28;20070;-65
2023/10/12 07:56:15;;;;;;;22.67;19.73;;;15.20;99.90;;;;;;5113255;28;20030;-64
2023/10/12 07:58:43;;;;;;;23.45;20.15;;;15.20;99.90;;;;;;5112982;28;20032;-64
2023/10/12 08:03:58;;;;;;;25.92;20.90;;;15.10;99.90;;;;;;5113897;28;20082;-65
2023/10/12 08:06:42;;;;;;;22.08;19.70;;;15.30;99.90;;;;;;5113181;28;20089;-64
2023/10/12 08:11:55;;;;;;;22.00;19.88;;;15.80;99.90;;;;;;5113624;28;20035;-64
2023/10/12 08:17:25;;;;;;;21.92;18.95;;;16.20;99.90;;;;;;5113311;28;20029;-64
2023/10/12 08:19:45;;;;;;;24.95;19.48;;;16.40;99.90;;;;;;5112693;28;20035;-65
2023/10/12 08:22:29;;;;;;;26.00;19.67;;;16.40;99.90;;;;;;5113045;28;20051;-66
2023/10/12 08:24:58;;;;;;;23.58;19.38;;;16.50;99.90;;;;;;5094755;28;20039;-67
2023/10/12 08:27:25;;;;;;;23.55;20.00;;;16.90;99.90;;;;;;5112599;28;20077;-67
2023/10/12 08:35:35;;;;;;;22.05;18.90;;;17.20;99.90;;;;;;5112538;28;20024;-66
2023/10/12 08:38:09;;;;;;;23.17;19.92;;;17.40;99.90;;;;;;5112094;28;20501;-66
2023/10/12 08:40:26;;;;;;;23.73;19.13;;;17.60;99.90;;;;;;5112303;28;20375;-66
2023/10/12 08:43:06;;;;;;;22.45;20.15;;;17.50;99.90;;;;;;5112153;28;20510;-66
2023/10/12 08:45:33;;;;;;;23.77;19.50;;;17.40;99.90;;;;;;5112006;28;20047;-67
2023/10/12 08:48:02;;;;;;;23.70;20.38;;;17.30;99.90;;;;;;5112469;28;20024;-66
2023/10/12 08:53:19;;;;;;;25.13;22.42;;;17.40;99.90;;;;;;5112301;28;20116;-66
2023/10/12 08:55:48;;;;;;;22.77;20.58;;;17.40;99.90;;;;;;5112004;28;20409;-66
2023/10/12 08:58:20;;;;;;;22.90;20.52;;;17.40;99.90;;;;;;5112055;28;20149;-66
2023/10/12 09:01:35;;;;;;;22.87;19.30;;;17.50;99.90;;;;;;5112754;28;20028;-65
2023/10/12 09:03:38;;;;;;;22.27;19.70;;;17.60;99.90;;;;;;5097948;28;20474;-66
2023/10/12 09:06:19;;;;;;;22.80;18.48;;;17.90;99.90;;;;;;5112611;28;20047;-66
2023/10/12 09:08:46;;;;;;;22.58;18.08;;;18.10;99.90;;;;;;5112072;28;20031;-67
2023/10/12 09:13:45;;;;;;;20.15;18.05;;;18.20;99.90;;;;;;5111993;28;20024;-66
2023/10/12 09:16:11;;;;;;;21.42;18.30;;;18.20;99.90;;;;;;5112045;28;20030;-66
2023/10/12 09:26:30;;;;;;;22.55;18.92;;;18.60;99.90;;;;;;5111372;28;20054;-64
2023/10/12 09:29:08;;;;;;;22.48;18.48;;;18.80;99.90;;;;;;5111527;28;20457;-65
2023/10/12 09:36:43;;;;;;;22.70;17.42;;;19.10;99.90;;;;;;5111918;28;20164;-64
2023/10/12 09:39:15;;;;;;;23.40;18.42;;;19.20;99.90;;;;;;5111335;28;20028;-65
2023/10/12 09:41:55;;;;;;;19.70;17.58;;;19.30;99.90;;;;;;5112228;28;20026;-65
2023/10/12 09:44:27;;;;;;;19.15;16.75;;;19.50;99.90;;;;;;5111529;28;20554;-64
2023/10/12 09:46:57;;;;;;;20.25;17.95;;;19.60;99.90;;;;;;5111833;28;20599;-65
2023/10/12 09:49:29;;;;;;;19.77;17.15;;;19.70;99.90;;;;;;5111274;28;20028;-66
2023/10/12 09:52:01;;;;;;;20.38;17.42;;;20.00;99.90;;;;;;5111537;28;20048;-65
2023/10/12 09:54:49;;;;;;;22.30;18.23;;;20.20;99.90;;;;;;5111170;28;20020;-65
2023/10/12 09:57:19;;;;;;;21.13;18.92;;;20.50;99.90;;;;;;5111569;28;20030;-66
2023/10/12 09:59:52;;;;;;;21.35;17.60;;;20.60;99.90;;;;;;5111230;28;20032;-65
2023/10/12 10:02:42;;;;;;;19.45;17.52;;;20.70;99.90;;;;;;5111080;28;20039;-65
2023/10/12 10:05:11;;;;;;;18.67;16.40;;;20.90;99.90;;;;;;5111103;28;20032;-65
2023/10/12 10:08:17;;;;;;;20.20;16.73;;;21.00;99.90;;;;;;5111219;28;20505;-65
2023/10/12 10:10:44;;;;;;;22.30;16.60;;;21.10;99.90;;;;;;5028320;28;20511;-64
2023/10/12 10:13:39;;;;;;;20.40;15.52;;;21.20;99.90;;;;;;5028288;28;20068;-64
2023/10/12 10:16:08;;;;;;;;;;;21.10;99.90;;;;;;5029968;28;20025;-64
2023/10/12 10:18:45;;;;;;;18.90;16.35;;;21.20;99.90;;;;;;5032440;28;19905;-64
2023/10/12 10:21:13;;;;;;;24.77;21.17;;;21.50;99.90;;;;;;5032217;28;20033;-65
2023/10/12 10:23:48;;;;;;;38.00;33.92;;;21.50;99.90;;;;;;5032282;28;20017;-65
2023/10/12 10:26:19;;;;;;;23.23;20.85;;;21.40;99.90;;;;;;5031963;28;20057;-65
2023/10/12 10:28:54;;;;;;;24.10;21.30;;;21.40;99.90;;;;;;5032086;28;20144;-65
2023/10/12 10:31:35;;;;;;;133.13;107.20;;;21.50;99.90;;;;;;5051935;28;20419;-65
2023/10/12 10:34:05;;;;;;;83.72;68.43;;;21.60;99.90;;;;;;5052252;28;20028;-64
2023/10/12 10:36:35;;;;;;;85.28;68.75;;;21.80;99.90;;;;;;5052015;28;20032;-65
2023/10/12 10:41:46;;;;;;;22.05;18.25;;;21.90;99.90;;;;;;5051988;28;20029;-65
2023/10/12 10:44:21;;;;;;;25.63;20.17;;;22.10;99.90;;;;;;5059257;28;20040;-65
2023/10/12 10:46:57;;;;;;;32.60;20.77;;;22.10;99.90;;;;;;5074595;28;20129;-65
2023/10/12 10:49:31;;;;;;;29.13;21.02;;;22.20;99.90;;;;;;5073608;28;20074;-65
2023/10/12 10:52:33;;;;;;;30.60;23.00;;;22.20;99.90;;;;;;5073728;28;20056;-65
2023/10/12 10:54:59;;;;;;;25.58;20.15;;;22.30;99.90;;;;;;5070536;28;20075;-65
2023/10/12 10:57:25;;;;;;;22.52;18.40;;;22.30;99.90;;;;;;5073176;28;20029;-65
2023/10/12 10:59:52;;;;;;;23.88;16.25;;;22.30;99.90;;;;;;5073702;28;20108;-64
2023/10/12 11:02:21;;;;;;;19.35;16.58;;;22.40;99.90;;;;;;5073239;28;20029;-65
2023/10/12 11:04:47;;;;;;;20.48;16.83;;;22.50;99.90;;;;;;5073703;28;20028;-65
2023/10/12 11:07:15;;;;;;;18.92;16.10;;;22.60;99.90;;;;;;5073377;28;20044;-65
2023/10/12 11:12:22;;;;;;;18.75;15.90;;;22.70;99.90;;;;;;5073769;28;20032;-65
2023/10/12 11:15:05;;;;;;;21.77;15.57;;;22.90;99.90;;;;;;5073673;28;20024;-65
2023/10/12 11:17:40;;;;;;;16.85;15.15;;;23.00;99.90;;;;;;5073707;28;20266;-65
2023/10/12 11:20:08;;;;;;;21.88;15.90;;;23.00;99.90;;;;;;5055462;28;20411;-65
2023/10/12 11:22:37;;;;;;;18.85;15.43;;;23.10;99.90;;;;;;5073198;28;20021;-65
2023/10/12 11:25:10;;;;;;;19.20;14.32;;;23.20;99.90;;;;;;5086783;28;20024;-64
2023/10/12 11:27:36;;;;;;;20.67;15.68;;;23.60;99.90;;;;;;5092094;28;20047;-64
2023/10/12 11:30:26;;;;;;;17.63;15.65;;;23.70;99.90;;;;;;5093576;28;20422;-65
2023/10/12 11:32:54;;;;;;;17.48;13.73;;;23.60;99.90;;;;;;5093272;28;20053;-65
2023/10/12 11:35:43;;;;;;;17.00;12.77;;;24.00;99.90;;;;;;5093568;28;20560;-65
2023/10/12 11:38:19;;;;;;;14.30;12.80;;;24.20;99.90;;;;;;5093869;28;20028;-64
2023/10/12 11:40:48;;;;;;;15.30;13.73;;;24.40;99.90;;;;;;5093480;28;20020;-65
2023/10/12 11:43:14;;;;;;;16.73;13.27;;;24.40;99.90;;;;;;5093393;28;20048;-65
2023/10/12 11:46:01;;;;;;;19.20;13.50;;;24.50;99.90;;;;;;5093064;28;20055;-65
2023/10/12 11:48:29;;;;;;;14.85;12.98;;;24.50;99.90;;;;;;5093163;28;20032;-65
2023/10/12 11:50:56;;;;;;;17.15;13.05;;;24.60;99.90;;;;;;5093127;28;20118;-66
2023/10/12 11:53:24;;;;;;;15.40;13.27;;;24.70;99.90;;;;;;5093172;28;20043;-66
2023/10/12 11:58:37;;;;;;;16.83;12.93;;;24.80;99.90;;;;;;5092736;28;20107;-65
2023/10/12 12:01:02;;;;;;;16.40;12.93;;;24.90;99.90;;;;;;5093053;28;20111;-66
2023/10/12 12:03:29;;;;;;;18.30;12.27;;;24.80;99.90;;;;;;5093099;28;20012;-66
2023/10/12 12:05:55;;;;;;;16.15;12.50;;;24.70;99.90;;;;;;5092676;28;20090;-66
2023/10/12 12:08:24;;;;;;;15.38;11.93;;;24.60;99.90;;;;;;5092931;28;20024;-66
2023/10/12 12:13:20;;;;;;;14.10;11.20;;;24.90;99.90;;;;;;5092806;28;20111;-65
2023/10/12 12:15:46;;;;;;;14.70;11.50;;;25.10;99.90;;;;;;5074901;28;20123;-66
2023/10/12 12:18:19;;;;;;;16.63;11.25;;;25.10;99.90;;;;;;5092675;28;20103;-66
2023/10/12 12:20:56;;;;;;;13.25;11.77;;;25.10;99.90;;;;;;5092433;28;20020;-66
2023/10/12 12:23:33;;;;;;;13.10;10.40;;;25.20;99.90;;;;;;5092525;28;20035;-66
2023/10/12 12:26:07;;;;;;;15.25;10.98;;;25.30;99.90;;;;;;5092553;28;20032;-66
2023/10/12 12:28:43;;;;;;;13.55;10.18;;;25.40;99.90;;;;;;5092152;28;20040;-65
2023/10/12 12:31:10;;;;;;;12.48;9.93;;;25.60;99.90;;;;;;5092423;28;20027;-65
2023/10/12 12:33:41;;;;;;;15.60;9.90;;;25.70;99.90;;;;;;5091945;28;20486;-65
2023/10/12 12:36:10;;;;;;;12.60;9.68;;;25.80;99.90;;;;;;5092801;28;20035;-65
2023/10/12 12:41:22;;;;;;;12.90;10.30;;;25.70;99.90;;;;;;5092307;28;20042;-65
2023/10/12 12:43:48;;;;;;;16.63;11.57;;;25.80;99.90;;;;;;5092196;28;20055;-65
2023/10/12 12:46:15;;;;;;;19.60;14.38;;;25.80;99.90;;;;;;5092002;28;20161;-65
2023/10/12 12:48:48;;;;;;;15.57;13.98;;;25.60;99.90;;;;;;5091952;28;20024;-65
2023/10/12 12:51:15;;;;;;;15.73;13.13;;;25.50;99.90;;;;;;5092587;28;20024;-66
2023/10/12 12:53:47;;;;;;;18.08;13.93;;;25.50;99.90;;;;;;5092042;28;20418;-65
2023/10/12 12:56:18;;;;;;;16.03;13.67;;;25.60;99.90;;;;;;5092013;28;20024;-65
2023/10/12 12:58:46;;;;;;;15.13;13.52;;;25.50;99.90;;;;;;5073791;28;20784;-65
2023/10/12 13:01:26;;;;;;;21.52;14.88;;;25.50;99.90;;;;;;5091889;28;20142;-65
2023/10/12 13:03:55;;;;;;;21.60;17.38;;;25.70;99.90;;;;;;5091436;28;20028;-65
2023/10/12 13:06:21;;;;;;;22.38;18.00;;;25.70;99.90;;;;;;5091693;28;20113;-65
2023/10/12 13:08:46;;;;;;;20.75;17.98;;;25.60;99.90;;;;;;5092200;28;20024;-65
2023/10/12 13:11:20;;;;;;;23.75;18.33;;;25.50;99.90;;;;;;5091773;28;20398;-65
2023/10/12 13:13:47;;;;;;;24.85;18.80;;;25.60;99.90;;;;;;5091701;28;20036;-65
2023/10/12 13:16:13;;;;;;;21.95;19.17;;;25.50;99.90;;;;;;5091874;28;20461;-65
2023/10/12 13:18:45;;;;;;;22.98;19.52;;;25.50;99.90;;;;;;5091324;28;20031;-65
2023/10/12 13:21:14;;;;;;;23.52;20.60;;;25.50;99.90;;;;;;5091968;28;20441;-65
2023/10/12 13:23:41;;;;;;;23.17;19.77;;;25.50;99.90;;;;;;5091384;28;20119;-64
2023/10/12 13:26:08;;;;;;;23.15;18.38;;;25.50;99.90;;;;;;5091474;28;20043;-65
2023/10/12 13:28:34;;;;;;;21.02;18.73;;;25.70;99.90;;;;;;5091156;28;20421;-66
2023/10/12 13:31:01;;;;;;;19.48;17.30;;;25.70;99.90;;;;;;5091011;28;20075;-64
2023/10/12 13:33:30;;;;;;;21.83;17.17;;;25.80;99.90;;;;;;5091390;28;20382;-65
2023/10/12 13:35:56;;;;;;;20.35;16.67;;;26.00;99.90;;;;;;5091297;28;20028;-65
2023/10/12 13:38:22;;;;;;;19.55;17.48;;;26.00;99.90;;;;;;5091333;28;20085;-65
2023/10/12 13:40:50;;;;;;;25.73;18.10;;;26.10;99.90;;;;;;5091284;28;20027;-65
2023/10/12 13:43:21;;;;;;;24.17;17.98;;;26.00;99.90;;;;;;5091271;28;20020;-65
2023/10/12 13:45:55;;;;;;;21.40;18.67;;;26.00;99.90;;;;;;5091161;28;20409;-65
2023/10/12 13:48:25;;;;;;;22.13;19.27;;;26.10;99.90;;;;;;5091324;28;20108;-65
2023/10/12 13:51:04;;;;;;;21.95;18.17;;;26.10;99.90;;;;;;5090471;28;20111;-65
2023/10/12 13:53:36;;;;;;;22.13;17.23;;;26.10;99.90;;;;;;5091168;28;20610;-65
2023/10/12 13:56:11;;;;;;;20.25;17.08;;;26.10;99.90;;;;;;5091129;28;20063;-65
2023/10/12 13:58:42;;;;;;;21.58;16.13;;;26.10;99.90;;;;;;5091009;28;20073;-65
2023/10/12 14:01:14;;;;;;;18.45;16.08;;;26.20;99.90;;;;;;5090707;28;20043;-65
2023/10/12 14:03:44;;;;;;;21.23;16.08;;;26.10;99.90;;;;;;5090920;28;20111;-65
2023/10/12 14:06:13;;;;;;;18.52;15.68;;;26.20;99.90;;;;;;5091204;28;20078;-65
2023/10/12 14:08:43;;;;;;;16.75;15.05;;;26.40;99.90;;;;;;5091230;28;20016;-65
2023/10/12 14:11:16;;;;;;;16.42;14.35;;;26.60;99.90;;;;;;5090817;28;20517;-65
2023/10/12 14:13:43;;;;;;;17.63;14.27;;;26.60;99.90;;;;;;5091209;28;20036;-65
2023/10/12 14:16:10;;;;;;;16.30;12.70;;;26.50;99.90;;;;;;5090628;28;20099;-65
2023/10/12 14:18:40;;;;;;;14.20;12.45;;;26.50;99.90;;;;;;5090903;28;20032;-65
2023/10/12 14:21:10;;;;;;;14.75;12.30;;;26.60;99.90;;;;;;5091137;28;20034;-65
2023/10/12 14:23:40;;;;;;;15.07;12.63;;;26.60;99.90;;;;;;5090583;28;20089;-65
2023/10/12 14:26:09;;;;;;;14.82;12.52;;;26.60;99.90;;;;;;5091163;28;20020;-65
2023/10/12 14:28:35;;;;;;;14.55;12.43;;;26.60;99.90;;;;;;5090493;28;20066;-65